sensor_id;sensor_type;location;lat;lon;timestamp;pressure;altitude;pressure_sealevel;temperature;humidity
68891;BME280;55932;48.702;8.884;2023-08-17T00:00:11;96310;;;19;67
68891;BME280;55932;48.702;8.884;2023-08-17T00:02:42;96310;;;18.8;67.5
68891;BME280;55932;48.702;8.884;2023-08-17T00:05:13;96310;;;18.7;67.5
68891;BME280;55932;48.702;8.884;2023-08-17T00:07:43;96320;;;18.4;68
68891;BME280;55932;48.702;8.884;2023-08-17T00:10:14;96320;;;18.3;68
68891;BME280;55932;48.702;8.884;2023-08-17T00:12:45;96320;;;18.1;68.5
68891;BME280;55932;48.702;8.884;2023-08-17T00:15:23;96320;;;18.1;68.5
68891;BME280;55932;48.702;8.884;2023-08-17T00:20:18;96320;;;18;68.5
68891;BME280;55932;48.702;8.884;2023-08-17T00:22:48;96320;;;17.9;68.5
68891;BME280;55932;48.702;8.884;2023-08-17T00:25:20;96320;;;18;68.5
68891;BME280;55932;48.702;8.884;2023-08-17T00:30:28;96320;;;18;68.5
68891;BME280;55932;48.702;8.884;2023-08-17T00:32:57;96310;;;18;68.5
68891;BME280;55932;48.702;8.884;2023-08-17T00:35:28;96320;;;18;68
68891;BME280;55932;48.702;8.884;2023-08-17T00:40:22;96310;;;17.9;68.5
68891;BME280;55932;48.702;8.884;2023-08-17T00:42:59;96310;;;17.8;68.5
68891;BME280;55932;48.702;8.884;2023-08-17T00:47:56;96310;;;17.6;69
68891;BME280;55932;48.702;8.884;2023-08-17T00:50:26;96300;;;17.5;69
68891;BME280;55932;48.702;8.884;2023-08-17T00:52:57;96300;;;17.5;69
68891;BME280;55932;48.702;8.884;2023-08-17T00:55:28;96300;;;17.5;68.5
68891;BME280;55932;48.702;8.884;2023-08-17T00:57:58;96290;;;17.5;68.5
68891;BME280;55932;48.702;8.884;2023-08-17T01:00:30;96290;;;17.4;69
68891;BME280;55932;48.702;8.884;2023-08-17T01:03:00;96280;;;17.4;69
68891;BME280;55932;48.702;8.884;2023-08-17T01:07:55;96290;;;17.3;69
68891;BME280;55932;48.702;8.884;2023-08-17T01:10:28;96280;;;17.4;68.5
68891;BME280;55932;48.702;8.884;2023-08-17T01:13:00;96280;;;17.4;68.5
68891;BME280;55932;48.702;8.884;2023-08-17T01:15:30;96290;;;17.2;69
68891;BME280;55932;48.702;8.884;2023-08-17T01:18:00;96280;;;17.2;69
68891;BME280;55932;48.702;8.884;2023-08-17T01:20:29;96290;;;17.2;69
68891;BME280;55932;48.702;8.884;2023-08-17T01:31:08;96290;;;17;69
68891;BME280;55932;48.702;8.884;2023-08-17T01:35:50;96290;;;17;69
68891;BME280;55932;48.702;8.884;2023-08-17T01:38:16;96290;;;17.1;68.5
68891;BME280;55932;48.702;8.884;2023-08-17T01:40:45;96290;;;17.2;68.5
68891;BME280;55932;48.702;8.884;2023-08-17T01:43:16;96300;;;17.2;68.5
68891;BME280;55932;48.702;8.884;2023-08-17T01:45:52;96300;;;17.1;69
68891;BME280;55932;48.702;8.884;2023-08-17T01:48:15;96300;;;17;69
68891;BME280;55932;48.702;8.884;2023-08-17T01:50:45;96300;;;17;69
68891;BME280;55932;48.702;8.884;2023-08-17T01:53:16;96300;;;17;68.5
68891;BME280;55932;48.702;8.884;2023-08-17T01:58:11;96290;;;17;69
68891;BME280;55932;48.702;8.884;2023-08-17T02:00:42;96290;;;17.1;69
68891;BME280;55932;48.702;8.884;2023-08-17T02:05:51;96290;;;17.4;68.5
68891;BME280;55932;48.702;8.884;2023-08-17T02:08:21;96290;;;17.5;68.5
68891;BME280;55932;48.702;8.884;2023-08-17T02:10:51;96280;;;17.6;68
68891;BME280;55932;48.702;8.884;2023-08-17T02:13:21;96290;;;17.7;68
68891;BME280;55932;48.702;8.884;2023-08-17T02:15:51;96280;;;17.8;68
68891;BME280;55932;48.702;8.884;2023-08-17T02:18:21;96280;;;18;67.5
68891;BME280;55932;48.702;8.884;2023-08-17T02:23:09;96270;;;18.1;67.5
68891;BME280;55932;48.702;8.884;2023-08-17T02:25:48;96270;;;18.1;67.5
68891;BME280;55932;48.702;8.884;2023-08-17T02:28:10;96270;;;18.2;67.5
68891;BME280;55932;48.702;8.884;2023-08-17T02:30:41;96270;;;18.2;67.5
68891;BME280;55932;48.702;8.884;2023-08-17T02:33:12;96260;;;18.3;67.5
68891;BME280;55932;48.702;8.884;2023-08-17T02:35:43;96260;;;18.4;67
68891;BME280;55932;48.702;8.884;2023-08-17T02:38:13;96260;;;18.4;67
68891;BME280;55932;48.702;8.884;2023-08-17T02:40:45;96260;;;18.5;67
68891;BME280;55932;48.702;8.884;2023-08-17T02:48:17;96260;;;18.5;67.5
68891;BME280;55932;48.702;8.884;2023-08-17T02:50:47;96260;;;18.6;67
68891;BME280;55932;48.702;8.884;2023-08-17T02:53:18;96250;;;18.7;67
68891;BME280;55932;48.702;8.884;2023-08-17T02:55:49;96250;;;18.7;67
68891;BME280;55932;48.702;8.884;2023-08-17T02:58:19;96240;;;18.6;67
68891;BME280;55932;48.702;8.884;2023-08-17T03:00:57;96240;;;18.6;67.5
68891;BME280;55932;48.702;8.884;2023-08-17T03:03:28;96230;;;18.6;67
68891;BME280;55932;48.702;8.884;2023-08-17T03:08:29;96230;;;18.6;67.5
68891;BME280;55932;48.702;8.884;2023-08-17T03:11:00;96230;;;18.7;67
68891;BME280;55932;48.702;8.884;2023-08-17T03:13:31;96230;;;18.7;67
68891;BME280;55932;48.702;8.884;2023-08-17T03:16:02;96220;;;18.7;67.5
68891;BME280;55932;48.702;8.884;2023-08-17T03:18:33;96220;;;18.8;67
68891;BME280;55932;48.702;8.884;2023-08-17T03:21:04;96220;;;18.8;67
68891;BME280;55932;48.702;8.884;2023-08-17T03:23:41;96210;;;18.8;67
68891;BME280;55932;48.702;8.884;2023-08-17T03:28:30;96220;;;18.7;67.5
68891;BME280;55932;48.702;8.884;2023-08-17T03:31:01;96210;;;18.7;67.5
68891;BME280;55932;48.702;8.884;2023-08-17T03:33:31;96220;;;18.7;67.5
68891;BME280;55932;48.702;8.884;2023-08-17T03:36:02;96210;;;18.7;67.5
68891;BME280;55932;48.702;8.884;2023-08-17T03:38:32;96210;;;18.7;67.5
68891;BME280;55932;48.702;8.884;2023-08-17T03:41:04;96210;;;18.6;67.5
68891;BME280;55932;48.702;8.884;2023-08-17T03:43:34;96210;;;18.7;67.5
68891;BME280;55932;48.702;8.884;2023-08-17T03:51:07;96210;;;18.6;67.5
68891;BME280;55932;48.702;8.884;2023-08-17T03:53:37;96210;;;18.6;67.5
68891;BME280;55932;48.702;8.884;2023-08-17T03:56:08;96210;;;18.5;67.5
68891;BME280;55932;48.702;8.884;2023-08-17T03:58:46;96220;;;18.5;67.5
68891;BME280;55932;48.702;8.884;2023-08-17T04:01:17;96220;;;18.5;67.5
68891;BME280;55932;48.702;8.884;2023-08-17T04:03:47;96220;;;18.6;67.5
68891;BME280;55932;48.702;8.884;2023-08-17T04:06:20;96230;;;18.6;67.5
68891;BME280;55932;48.702;8.884;2023-08-17T04:08:43;96230;;;18.5;67.5
68891;BME280;55932;48.702;8.884;2023-08-17T04:11:13;96240;;;18.4;67.5
68891;BME280;55932;48.702;8.884;2023-08-17T04:13:44;96240;;;18.4;67.5
68891;BME280;55932;48.702;8.884;2023-08-17T04:21:16;96240;;;18.4;67.5
68891;BME280;55932;48.702;8.884;2023-08-17T04:23:51;96240;;;18.4;67.5
68891;BME280;55932;48.702;8.884;2023-08-17T04:28:55;96250;;;18.3;67.5
68891;BME280;55932;48.702;8.884;2023-08-17T04:31:26;96240;;;18.3;67.5
68891;BME280;55932;48.702;8.884;2023-08-17T04:33:57;96240;;;18.3;67.5
68891;BME280;55932;48.702;8.884;2023-08-17T04:36:27;96250;;;18.3;67.5
68891;BME280;55932;48.702;8.884;2023-08-17T04:38:51;96250;;;18.3;67.5
68891;BME280;55932;48.702;8.884;2023-08-17T04:41:22;96250;;;18.3;67.5
68891;BME280;55932;48.702;8.884;2023-08-17T04:48:54;96250;;;18.4;67.5
68891;BME280;55932;48.702;8.884;2023-08-17T04:51:25;96250;;;18.3;67.5
68891;BME280;55932;48.702;8.884;2023-08-17T04:53:56;96250;;;18.3;67.5
68891;BME280;55932;48.702;8.884;2023-08-17T04:56:40;96250;;;18.2;67.5
68891;BME280;55932;48.702;8.884;2023-08-17T04:59:04;96250;;;18.3;67.5
68891;BME280;55932;48.702;8.884;2023-08-17T05:03:59;96260;;;18.3;67.5
68891;BME280;55932;48.702;8.884;2023-08-17T05:06:31;96260;;;18.4;67.5
68891;BME280;55932;48.702;8.884;2023-08-17T05:09:01;96260;;;18.4;67.5
68891;BME280;55932;48.702;8.884;2023-08-17T05:16:33;96260;;;18.4;67
68891;BME280;55932;48.702;8.884;2023-08-17T05:22:00;96260;;;18.5;67
68891;BME280;55932;48.702;8.884;2023-08-17T05:24:18;96260;;;18.5;67
68891;BME280;55932;48.702;8.884;2023-08-17T05:26:48;96260;;;18.5;67
68891;BME280;55932;48.702;8.884;2023-08-17T05:29:18;96260;;;18.6;67
68891;BME280;55932;48.702;8.884;2023-08-17T05:34:12;96270;;;18.7;67
68891;BME280;55932;48.702;8.884;2023-08-17T05:36:43;96270;;;18.6;67
68891;BME280;55932;48.702;8.884;2023-08-17T05:39:26;96260;;;18.6;67
68891;BME280;55932;48.702;8.884;2023-08-17T05:41:52;96270;;;18.8;67
68891;BME280;55932;48.702;8.884;2023-08-17T05:46:47;96270;;;18.8;66.5
68891;BME280;55932;48.702;8.884;2023-08-17T05:49:18;96280;;;18.8;66.5
68891;BME280;55932;48.702;8.884;2023-08-17T05:51:49;96280;;;18.8;66.5
68891;BME280;55932;48.702;8.884;2023-08-17T05:54:20;96280;;;18.8;67
68891;BME280;55932;48.702;8.884;2023-08-17T05:56:51;96290;;;18.9;66.5
68891;BME280;55932;48.702;8.884;2023-08-17T06:01:45;96290;;;18.8;66.5
68891;BME280;55932;48.702;8.884;2023-08-17T06:11:48;96290;;;19.1;66.5
68891;BME280;55932;48.702;8.884;2023-08-17T06:14:19;96290;;;19.2;66.5
68891;BME280;55932;48.702;8.884;2023-08-17T06:16:50;96290;;;19.4;66
68891;BME280;55932;48.702;8.884;2023-08-17T06:19:21;96290;;;19.6;66
68891;BME280;55932;48.702;8.884;2023-08-17T06:21:58;96290;;;19.8;66
68891;BME280;55932;48.702;8.884;2023-08-17T06:24:29;96280;;;20;65.5
68891;BME280;55932;48.702;8.884;2023-08-17T06:27:00;96290;;;19.9;65.5
68891;BME280;55932;48.702;8.884;2023-08-17T06:29:24;96280;;;20;65
68891;BME280;55932;48.702;8.884;2023-08-17T06:31:55;96280;;;20.1;65.5
68891;BME280;55932;48.702;8.884;2023-08-17T06:41:59;96280;;;20.4;65.5
68891;BME280;55932;48.702;8.884;2023-08-17T06:44:29;96280;;;20.6;65
68891;BME280;55932;48.702;8.884;2023-08-17T06:49:43;96280;;;20.7;65
68891;BME280;55932;48.702;8.884;2023-08-17T06:52:13;96280;;;20.6;65.5
68891;BME280;55932;48.702;8.884;2023-08-17T06:54:44;96280;;;20.6;65.5
68891;BME280;55932;48.702;8.884;2023-08-17T06:59:38;96280;;;20.6;65.5
68891;BME280;55932;48.702;8.884;2023-08-17T07:02:09;96280;;;20.8;65.5
68891;BME280;55932;48.702;8.884;2023-08-17T07:04:40;96280;;;20.9;65.5
68891;BME280;55932;48.702;8.884;2023-08-17T07:07:18;96280;;;21.1;65.5
68891;BME280;55932;48.702;8.884;2023-08-17T07:12:13;96280;;;21.8;65
68891;BME280;55932;48.702;8.884;2023-08-17T07:17:15;96280;;;21.7;65
68891;BME280;55932;48.702;8.884;2023-08-17T07:19:46;96280;;;21.7;65
68891;BME280;55932;48.702;8.884;2023-08-17T07:22:17;96280;;;21.8;65
68891;BME280;55932;48.702;8.884;2023-08-17T07:24:48;96280;;;21.8;65
68891;BME280;55932;48.702;8.884;2023-08-17T07:27:18;96290;;;21.7;65
68891;BME280;55932;48.702;8.884;2023-08-17T07:29:50;96280;;;21.5;65.5
68891;BME280;55932;48.702;8.884;2023-08-17T07:32:20;96280;;;21.9;67.5
68891;BME280;55932;48.702;8.884;2023-08-17T07:34:52;96280;;;23;67
68891;BME280;55932;48.702;8.884;2023-08-17T07:37:29;96280;;;23.4;66.5
68891;BME280;55932;48.702;8.884;2023-08-17T07:42:25;96280;;;23.8;66
68891;BME280;55932;48.702;8.884;2023-08-17T07:44:56;96280;;;24.7;65.5
68891;BME280;55932;48.702;8.884;2023-08-17T07:47:27;96280;;;25.5;64.5
68891;BME280;55932;48.702;8.884;2023-08-17T07:49:57;96280;;;26.3;64
68891;BME280;55932;48.702;8.884;2023-08-17T07:54:59;96290;;;25.6;65
68891;BME280;55932;48.702;8.884;2023-08-17T07:57:30;96290;;;26.1;65
68891;BME280;55932;48.702;8.884;2023-08-17T08:02:39;96280;;;26.4;64.5
68891;BME280;55932;48.702;8.884;2023-08-17T08:07:35;96290;;;26.6;64.5
68891;BME280;55932;48.702;8.884;2023-08-17T08:10:05;96290;;;26.9;64
68891;BME280;55932;48.702;8.884;2023-08-17T08:12:36;96290;;;26.9;64.5
68891;BME280;55932;48.702;8.884;2023-08-17T08:15:14;96280;;;26.5;64
68891;BME280;55932;48.702;8.884;2023-08-17T08:17:38;96280;;;26.7;65.5
68891;BME280;55932;48.702;8.884;2023-08-17T08:20:09;96280;;;27;64.5
68891;BME280;55932;48.702;8.884;2023-08-17T08:22:41;96290;;;27.3;64.5
68891;BME280;55932;48.702;8.884;2023-08-17T08:25:11;96290;;;27.1;65
68891;BME280;55932;48.702;8.884;2023-08-17T08:27:42;96290;;;27.3;64.5
68891;BME280;55932;48.702;8.884;2023-08-17T08:30:20;96280;;;28;64
68891;BME280;55932;48.702;8.884;2023-08-17T08:35:35;96280;;;28;64.5
68891;BME280;55932;48.702;8.884;2023-08-17T08:38:05;96280;;;28.4;64
68891;BME280;55932;48.702;8.884;2023-08-17T08:42:52;96280;;;29.1;63.5
68891;BME280;55932;48.702;8.884;2023-08-17T08:45:22;96280;;;29.7;63
68891;BME280;55932;48.702;8.884;2023-08-17T08:50:18;96270;;;29.5;63.5
68891;BME280;55932;48.702;8.884;2023-08-17T08:52:50;96280;;;30;63
68891;BME280;55932;48.702;8.884;2023-08-17T08:55:18;96270;;;30.6;62.5
68891;BME280;55932;48.702;8.884;2023-08-17T09:00:33;96280;;;29.3;63.5
68891;BME280;55932;48.702;8.884;2023-08-17T09:03:10;96270;;;29.3;64.5
68891;BME280;55932;48.702;8.884;2023-08-17T09:05:28;96280;;;29.9;64
68891;BME280;55932;48.702;8.884;2023-08-17T09:07:57;96270;;;30.8;62.5
68891;BME280;55932;48.702;8.884;2023-08-17T09:12:51;96270;;;31.3;61
68891;BME280;55932;48.702;8.884;2023-08-17T09:15:22;96260;;;30.6;61.5
68891;BME280;55932;48.702;8.884;2023-08-17T09:17:53;96270;;;29.7;62.5
68891;BME280;55932;48.702;8.884;2023-08-17T09:25:21;96260;;;30.7;62
68891;BME280;55932;48.702;8.884;2023-08-17T09:27:50;96270;;;31.4;61.5
68891;BME280;55932;48.702;8.884;2023-08-17T09:30:26;96260;;;31.5;61
68891;BME280;55932;48.702;8.884;2023-08-17T09:32:52;96260;;;31.7;61
68891;BME280;55932;48.702;8.884;2023-08-17T09:40:41;96260;;;29.5;62.5
68891;BME280;55932;48.702;8.884;2023-08-17T09:43:08;96260;;;29.1;63.5
68891;BME280;55932;48.702;8.884;2023-08-17T09:45:31;96260;;;29.2;64
68891;BME280;55932;48.702;8.884;2023-08-17T09:48:02;96260;;;29.7;63.5
68891;BME280;55932;48.702;8.884;2023-08-17T09:50:33;96260;;;29.9;63.5
68891;BME280;55932;48.702;8.884;2023-08-17T09:53:12;96260;;;31.2;62.5
68891;BME280;55932;48.702;8.884;2023-08-17T09:58:06;96260;;;30.8;62
68891;BME280;55932;48.702;8.884;2023-08-17T10:05:53;96250;;;30.3;63
68891;BME280;55932;48.702;8.884;2023-08-17T10:08:17;96250;;;29.5;64
68891;BME280;55932;48.702;8.884;2023-08-17T10:13:17;96250;;;29.6;65
68891;BME280;55932;48.702;8.884;2023-08-17T10:15:43;96250;;;30.3;64
68891;BME280;55932;48.702;8.884;2023-08-17T10:18:22;96250;;;29.9;64.5
68891;BME280;55932;48.702;8.884;2023-08-17T10:20:51;96250;;;30.2;64
68891;BME280;55932;48.702;8.884;2023-08-17T10:30:51;96260;;;33.4;60.5
68891;BME280;55932;48.702;8.884;2023-08-17T10:33:28;96260;;;33.3;60.5
68891;BME280;55932;48.702;8.884;2023-08-17T10:38:16;96260;;;32.5;62.5
68891;BME280;55932;48.702;8.884;2023-08-17T10:41:07;96260;;;32.9;62
68891;BME280;55932;48.702;8.884;2023-08-17T10:43:32;96270;;;33.8;60.5
68891;BME280;55932;48.702;8.884;2023-08-17T10:46:14;96260;;;34;60.5
68891;BME280;55932;48.702;8.884;2023-08-17T10:51:04;96260;;;33.5;62
68891;BME280;55932;48.702;8.884;2023-08-17T10:55:58;96250;;;34.1;61
68891;BME280;55932;48.702;8.884;2023-08-17T10:58:35;96260;;;34.2;61
68891;BME280;55932;48.702;8.884;2023-08-17T11:00:58;96250;;;33.5;62
68891;BME280;55932;48.702;8.884;2023-08-17T11:03:34;96250;;;32.4;63
68891;BME280;55932;48.702;8.884;2023-08-17T11:06:14;96250;;;31.8;64
68891;BME280;55932;48.702;8.884;2023-08-17T11:09:05;96250;;;31.2;64.5
68891;BME280;55932;48.702;8.884;2023-08-17T11:10:56;96240;;;31.3;64.5
68891;BME280;55932;48.702;8.884;2023-08-17T11:13:31;96240;;;31.3;64
68891;BME280;55932;48.702;8.884;2023-08-17T11:18:26;96230;;;31.2;64
68891;BME280;55932;48.702;8.884;2023-08-17T11:20:57;96230;;;31.6;64
68891;BME280;55932;48.702;8.884;2023-08-17T11:23:28;96230;;;31.7;63.5
68891;BME280;55932;48.702;8.884;2023-08-17T11:25:58;96220;;;32.3;63
68891;BME280;55932;48.702;8.884;2023-08-17T11:28:29;96230;;;32.7;61.5
68891;BME280;55932;48.702;8.884;2023-08-17T11:31:01;96230;;;32.3;62
68891;BME280;55932;48.702;8.884;2023-08-17T11:33:31;96230;;;31.8;62.5
68891;BME280;55932;48.702;8.884;2023-08-17T11:35:56;96240;;;30.6;64
68891;BME280;55932;48.702;8.884;2023-08-17T11:43:28;96240;;;29.2;65
68891;BME280;55932;48.702;8.884;2023-08-17T11:45:59;96240;;;28.8;65
68891;BME280;55932;48.702;8.884;2023-08-17T11:51:00;96230;;;28.9;64.5
68891;BME280;55932;48.702;8.884;2023-08-17T11:53:32;96230;;;28.8;64.5
68891;BME280;55932;48.702;8.884;2023-08-17T11:58:47;96240;;;28.8;64.5
68891;BME280;55932;48.702;8.884;2023-08-17T12:01:03;96260;;;28.6;64.5
68891;BME280;55932;48.702;8.884;2023-08-17T12:03:34;96260;;;28.4;64.5
68891;BME280;55932;48.702;8.884;2023-08-17T12:06:05;96260;;;28.1;65
68891;BME280;55932;48.702;8.884;2023-08-17T12:08:35;96260;;;28;64.5
68891;BME280;55932;48.702;8.884;2023-08-17T12:13:37;96260;;;28.3;64
68891;BME280;55932;48.702;8.884;2023-08-17T12:16:14;96260;;;28.2;64
68891;BME280;55932;48.702;8.884;2023-08-17T12:18:47;96280;;;28;64.5
68891;BME280;55932;48.702;8.884;2023-08-17T12:21:16;96280;;;27.8;64.5
68891;BME280;55932;48.702;8.884;2023-08-17T12:23:47;96270;;;27.6;65
68891;BME280;55932;48.702;8.884;2023-08-17T12:26:17;96270;;;27.4;65
68891;BME280;55932;48.702;8.884;2023-08-17T12:38:45;96290;;;24;70
68891;BME280;55932;48.702;8.884;2023-08-17T12:46:18;96290;;;22.5;70.5
68891;BME280;55932;48.702;8.884;2023-08-17T12:51:20;96290;;;22.9;69
68891;BME280;55932;48.702;8.884;2023-08-17T12:53:50;96280;;;23;68.5
68891;BME280;55932;48.702;8.884;2023-08-17T12:59:04;96270;;;23.3;67.5
68891;BME280;55932;48.702;8.884;2023-08-17T13:01:35;96280;;;23.4;67.5
68891;BME280;55932;48.702;8.884;2023-08-17T13:04:06;96280;;;23.3;67.5
68891;BME280;55932;48.702;8.884;2023-08-17T13:06:35;96290;;;23.3;67.5
68891;BME280;55932;48.702;8.884;2023-08-17T13:08:59;96270;;;23.3;67.5
68891;BME280;55932;48.702;8.884;2023-08-17T13:14:02;96270;;;23.4;67.5
68891;BME280;55932;48.702;8.884;2023-08-17T13:16:32;96270;;;23.5;67.5
68891;BME280;55932;48.702;8.884;2023-08-17T13:21:34;96270;;;23.6;67
68891;BME280;55932;48.702;8.884;2023-08-17T13:24:05;96270;;;23.6;67
68891;BME280;55932;48.702;8.884;2023-08-17T13:29:20;96270;;;23.4;67
68891;BME280;55932;48.702;8.884;2023-08-17T13:31:46;96270;;;23.2;67.5
68891;BME280;55932;48.702;8.884;2023-08-17T13:34:13;96260;;;23.1;67.5
68891;BME280;55932;48.702;8.884;2023-08-17T13:39:20;96260;;;23;67.5
68891;BME280;55932;48.702;8.884;2023-08-17T13:41:44;96260;;;23;67.5
68891;BME280;55932;48.702;8.884;2023-08-17T13:44:14;96260;;;22.8;67.5
68891;BME280;55932;48.702;8.884;2023-08-17T13:46:50;96260;;;22.8;67.5
68891;BME280;55932;48.702;8.884;2023-08-17T13:51:44;96250;;;22.7;67.5
68891;BME280;55932;48.702;8.884;2023-08-17T13:54:15;96250;;;22.6;67.5
68891;BME280;55932;48.702;8.884;2023-08-17T13:56:51;96250;;;22.6;67.5
68891;BME280;55932;48.702;8.884;2023-08-17T13:59:32;96250;;;22.7;67.5
68891;BME280;55932;48.702;8.884;2023-08-17T14:01:46;96250;;;22.8;67.5
68891;BME280;55932;48.702;8.884;2023-08-17T14:06:39;96240;;;23;67
68891;BME280;55932;48.702;8.884;2023-08-17T14:09:10;96230;;;23.2;67
68891;BME280;55932;48.702;8.884;2023-08-17T14:11:41;96230;;;23.5;66.5
68891;BME280;55932;48.702;8.884;2023-08-17T14:14:05;96230;;;24;66
68891;BME280;55932;48.702;8.884;2023-08-17T14:21:37;96210;;;24.8;65
68891;BME280;55932;48.702;8.884;2023-08-17T14:24:08;96200;;;25.3;64.5
68891;BME280;55932;48.702;8.884;2023-08-17T14:26:38;96190;;;25.7;63.5
68891;BME280;55932;48.702;8.884;2023-08-17T14:29:16;96200;;;26.1;63
68891;BME280;55932;48.702;8.884;2023-08-17T14:31:48;96200;;;26.7;62.5
68891;BME280;55932;48.702;8.884;2023-08-17T14:34:18;96200;;;27;62
68891;BME280;55932;48.702;8.884;2023-08-17T14:36:50;96190;;;27.9;61
68891;BME280;55932;48.702;8.884;2023-08-17T14:39:26;96200;;;28.7;60
68891;BME280;55932;48.702;8.884;2023-08-17T14:41:51;96190;;;29.3;59
68891;BME280;55932;48.702;8.884;2023-08-17T14:51:47;96180;;;32.5;54
68891;BME280;55932;48.702;8.884;2023-08-17T14:54:18;96180;;;32.5;54
68891;BME280;55932;48.702;8.884;2023-08-17T14:56:49;96190;;;32.7;53.5
68891;BME280;55932;48.702;8.884;2023-08-17T14:59:20;96190;;;33.3;52.5
68891;BME280;55932;48.702;8.884;2023-08-17T15:04:34;96190;;;33.6;51.5
68891;BME280;55932;48.702;8.884;2023-08-17T15:07:04;96180;;;33.2;52.5
68891;BME280;55932;48.702;8.884;2023-08-17T15:09:34;96180;;;32.9;53
68891;BME280;55932;48.702;8.884;2023-08-17T15:12:04;96180;;;32.2;55
68891;BME280;55932;48.702;8.884;2023-08-17T15:14:47;96170;;;32;55.5
68891;BME280;55932;48.702;8.884;2023-08-17T15:19:28;96170;;;32.1;55.5
68891;BME280;55932;48.702;8.884;2023-08-17T15:22:00;96170;;;30.8;57.5
68891;BME280;55932;48.702;8.884;2023-08-17T15:27:01;96170;;;29.8;59
68891;BME280;55932;48.702;8.884;2023-08-17T15:32:08;96170;;;29.8;59.5
68891;BME280;55932;48.702;8.884;2023-08-17T15:34:45;96160;;;29.9;59.5
68891;BME280;55932;48.702;8.884;2023-08-17T15:39:33;96160;;;30.1;59.5
68891;BME280;55932;48.702;8.884;2023-08-17T15:42:04;96150;;;30.3;59
68891;BME280;55932;48.702;8.884;2023-08-17T15:44:41;96160;;;31.2;57.5
68891;BME280;55932;48.702;8.884;2023-08-17T15:47:06;96160;;;31;57.5
68891;BME280;55932;48.702;8.884;2023-08-17T15:49:44;96150;;;30.4;58.5
68891;BME280;55932;48.702;8.884;2023-08-17T15:52:11;96140;;;30;59.5
68891;BME280;55932;48.702;8.884;2023-08-17T15:59:33;96130;;;29.9;59.5
68891;BME280;55932;48.702;8.884;2023-08-17T16:02:04;96130;;;29.7;60
68891;BME280;55932;48.702;8.884;2023-08-17T16:07:05;96120;;;29.6;60.5
68891;BME280;55932;48.702;8.884;2023-08-17T16:12:13;96130;;;29.3;61
68891;BME280;55932;48.702;8.884;2023-08-17T16:14:44;96130;;;29.3;61
68891;BME280;55932;48.702;8.884;2023-08-17T16:17:15;96120;;;29.5;60.5
68891;BME280;55932;48.702;8.884;2023-08-17T16:19:45;96130;;;30;60
68891;BME280;55932;48.702;8.884;2023-08-17T16:27:11;96150;;;30.5;59.5
68891;BME280;55932;48.702;8.884;2023-08-17T16:29:42;96150;;;30.6;59
68891;BME280;55932;48.702;8.884;2023-08-17T16:32:12;96150;;;31;57.5
68891;BME280;55932;48.702;8.884;2023-08-17T16:34:44;96160;;;30.8;58
68891;BME280;55932;48.702;8.884;2023-08-17T16:37:14;96160;;;29.7;60
68891;BME280;55932;48.702;8.884;2023-08-17T16:39:52;96180;;;28.7;61.5
68891;BME280;55932;48.702;8.884;2023-08-17T16:42:22;96170;;;27.7;63.5
68891;BME280;55932;48.702;8.884;2023-08-17T16:44:53;96170;;;27;64.5
68891;BME280;55932;48.702;8.884;2023-08-17T16:47:25;96170;;;26.6;65.5
68891;BME280;55932;48.702;8.884;2023-08-17T16:55:09;96160;;;25.8;66.5
68891;BME280;55932;48.702;8.884;2023-08-17T16:57:51;96160;;;25.6;66.5
68891;BME280;55932;48.702;8.884;2023-08-17T17:00:03;96160;;;25.5;66.5
68891;BME280;55932;48.702;8.884;2023-08-17T17:02:34;96160;;;25.4;66.5
68891;BME280;55932;48.702;8.884;2023-08-17T17:05:04;96160;;;25.2;67
68891;BME280;55932;48.702;8.884;2023-08-17T17:07:40;96170;;;25;67
68891;BME280;55932;48.702;8.884;2023-08-17T17:09:57;96170;;;24.9;67
68891;BME280;55932;48.702;8.884;2023-08-17T17:12:28;96170;;;24.9;67
68891;BME280;55932;48.702;8.884;2023-08-17T17:14:59;96180;;;24.9;67
68891;BME280;55932;48.702;8.884;2023-08-17T17:17:45;96180;;;24.8;67
68891;BME280;55932;48.702;8.884;2023-08-17T17:22:44;96180;;;24.6;67.5
68891;BME280;55932;48.702;8.884;2023-08-17T17:25:08;96190;;;24.5;67.5
68891;BME280;55932;48.702;8.884;2023-08-17T17:27:39;96190;;;24.4;67.5
68891;BME280;55932;48.702;8.884;2023-08-17T17:32:32;96190;;;24.3;67.5
68891;BME280;55932;48.702;8.884;2023-08-17T17:35:06;96200;;;24.3;67.5
68891;BME280;55932;48.702;8.884;2023-08-17T17:37:34;96210;;;24.4;67
68891;BME280;55932;48.702;8.884;2023-08-17T17:40:05;96210;;;24.4;67
68891;BME280;55932;48.702;8.884;2023-08-17T17:42:56;96220;;;24.3;67
68891;BME280;55932;48.702;8.884;2023-08-17T17:45:19;96220;;;24.3;67
68891;BME280;55932;48.702;8.884;2023-08-17T17:47:49;96210;;;24.3;67
68891;BME280;55932;48.702;8.884;2023-08-17T17:50:26;96210;;;24.2;67
68891;BME280;55932;48.702;8.884;2023-08-17T17:55:07;96210;;;24.1;67.5
68891;BME280;55932;48.702;8.884;2023-08-17T17:57:38;96200;;;24.1;67.5
68891;BME280;55932;48.702;8.884;2023-08-17T18:00:09;96200;;;24.1;67.5
68891;BME280;55932;48.702;8.884;2023-08-17T18:02:33;96190;;;24.1;67.5
68891;BME280;55932;48.702;8.884;2023-08-17T18:05:04;96190;;;24;67.5
68891;BME280;55932;48.702;8.884;2023-08-17T18:20:09;96190;;;23.7;68
68891;BME280;55932;48.702;8.884;2023-08-17T18:22:53;96190;;;23.6;68
68891;BME280;55932;48.702;8.884;2023-08-17T18:25:25;96200;;;23.5;68
68891;BME280;55932;48.702;8.884;2023-08-17T18:30:19;96210;;;23.4;68
68891;BME280;55932;48.702;8.884;2023-08-17T18:32:49;96210;;;23.4;68
68891;BME280;55932;48.702;8.884;2023-08-17T18:35:19;96200;;;23.3;68
68891;BME280;55932;48.702;8.884;2023-08-17T18:37:50;96200;;;23.2;68
68891;BME280;55932;48.702;8.884;2023-08-17T18:42:59;96210;;;23.1;68
68891;BME280;55932;48.702;8.884;2023-08-17T18:47:54;96200;;;23;68
68891;BME280;55932;48.702;8.884;2023-08-17T18:53:02;96210;;;22.8;68.5
68891;BME280;55932;48.702;8.884;2023-08-17T18:55:39;96210;;;22.6;69
68891;BME280;55932;48.702;8.884;2023-08-17T19:00:26;96210;;;22.4;69
68891;BME280;55932;48.702;8.884;2023-08-17T19:02:57;96210;;;22.3;69
68891;BME280;55932;48.702;8.884;2023-08-17T19:05:28;96210;;;22.3;68.5
68891;BME280;55932;48.702;8.884;2023-08-17T19:08:01;96210;;;22.3;69
68891;BME280;55932;48.702;8.884;2023-08-17T19:10:36;96210;;;22.3;68.5
68891;BME280;55932;48.702;8.884;2023-08-17T19:15:51;96210;;;22.3;68.5